Time;durP1;ratioP1;P1;durP2;ratioP2;P2;SDS_P1;SDS_P2;PMS_P1;PMS_P2;Temp;Humidity;BMP_temperature;BMP_pressure;BME280_temperature;BME280_humidity;BME280_pressure;Samples;Min_cycle;Max_cycle;Signal;HPM_P1;HPM_P2
2023/05/04 00:01:01;;;;;;;39.20;30.27;;;7.90;99.90;;;;;;4969736;28;20500;-86
2023/05/04 00:03:27;;;;;;;39.73;30.60;;;7.90;99.90;;;;;;4971636;28;20023;-86
2023/05/04 00:05:52;;;;;;;47.20;32.87;;;7.90;99.90;;;;;;4969318;28;20133;-86
2023/05/04 00:08:18;;;;;;;37.77;30.97;;;7.90;99.90;;;;;;4969223;28;20502;-86
2023/05/04 00:10:43;;;;;;;40.60;32.73;;;7.90;99.90;;;;;;4967559;28;20030;-86
2023/05/04 00:13:09;;;;;;;42.33;31.43;;;7.80;99.90;;;;;;4951011;28;20034;-87
2023/05/04 00:15:35;;;;;;;40.47;31.70;;;7.80;99.90;;;;;;4972315;28;20090;-86
2023/05/04 00:18:00;;;;;;;45.30;34.50;;;7.80;99.90;;;;;;4968500;28;20019;-87
2023/05/04 00:20:28;;;;;;;42.57;33.80;;;7.80;99.90;;;;;;4967750;28;20055;-86
2023/05/04 00:22:54;;;;;;;38.90;31.73;;;7.70;99.90;;;;;;4967723;28;20110;-87
2023/05/04 00:25:19;;;;;;;40.57;31.90;;;7.70;99.90;;;;;;4969284;28;20569;-86
2023/05/04 00:27:45;;;;;;;43.23;33.40;;;7.70;99.90;;;;;;4969007;28;20023;-86
2023/05/04 00:30:10;;;;;;;44.30;33.33;;;7.60;99.90;;;;;;4970713;28;20034;-87
2023/05/04 00:32:36;;;;;;;44.40;34.37;;;7.70;99.90;;;;;;4968551;28;20091;-86
2023/05/04 00:35:02;;;;;;;40.63;32.93;;;7.60;99.90;;;;;;4968327;28;20487;-86
2023/05/04 00:37:27;;;;;;;42.40;33.57;;;7.60;99.90;;;;;;4968697;28;20126;-86
2023/05/04 00:39:53;;;;;;;45.30;35.53;;;7.60;99.90;;;;;;4967081;28;20586;-85
2023/05/04 00:42:18;;;;;;;41.87;32.37;;;7.60;99.90;;;;;;4970090;28;20027;-86
2023/05/04 00:44:44;;;;;;;45.43;31.87;;;7.50;99.90;;;;;;4970979;28;20033;-86
2023/05/04 00:47:11;;;;;;;41.77;31.63;;;7.50;99.90;;;;;;4969368;28;20117;-86
2023/05/04 00:49:37;;;;;;;40.00;32.17;;;7.50;99.90;;;;;;4970657;28;20054;-87
2023/05/04 00:52:04;;;;;;;45.63;34.10;;;7.50;99.90;;;;;;4971257;28;20066;-87
2023/05/04 00:54:30;;;;;;;44.13;34.13;;;7.50;99.90;;;;;;4973145;28;20061;-87
2023/05/04 00:56:56;;;;;;;44.73;32.37;;;7.40;99.90;;;;;;4973578;28;20787;-86
2023/05/04 00:59:21;;;;;;;41.00;33.77;;;7.40;99.90;;;;;;4970581;28;20034;-87
2023/05/04 01:01:47;;;;;;;41.70;33.67;;;7.40;99.90;;;;;;4968796;28;20058;-85
2023/05/04 01:04:14;;;;;;;41.57;32.93;;;7.40;99.90;;;;;;4968893;28;20030;-86
2023/05/04 01:07:02;;;;;;;43.87;33.47;;;7.30;99.90;;;;;;4969386;28;20107;-86
2023/05/04 01:09:43;;;;;;;45.40;33.73;;;7.30;99.90;;;;;;4966381;28;20042;-87
2023/05/04 01:12:26;;;;;;;44.07;33.17;;;7.20;99.90;;;;;;4966967;28;20031;-86
2023/05/04 01:14:53;;;;;;;47.60;35.23;;;7.20;99.90;;;;;;4967007;28;20031;-86
2023/05/04 01:17:19;;;;;;;45.67;34.37;;;7.20;99.90;;;;;;4968080;28;20026;-86
2023/05/04 01:19:45;;;;;;;46.23;34.13;;;7.10;99.90;;;;;;4966144;28;20118;-86
2023/05/04 01:22:10;;;;;;;50.40;36.30;;;7.10;99.90;;;;;;4967507;28;20039;-86
2023/05/04 01:24:36;;;;;;;47.40;36.23;;;7.10;99.90;;;;;;4968765;28;20043;-86
2023/05/04 01:27:10;;;;;;;46.57;35.00;;;7.10;99.90;;;;;;4969135;28;20094;-86
2023/05/04 01:29:38;;;;;;;48.87;36.57;;;7.10;99.90;;;;;;4966616;28;20113;-86
2023/05/04 01:32:05;;;;;;;46.53;35.77;;;7.00;99.90;;;;;;4966632;28;20037;-85
2023/05/04 01:34:31;;;;;;;48.47;36.63;;;7.00;99.90;;;;;;4967925;28;20038;-86
2023/05/04 01:36:57;;;;;;;46.73;35.90;;;7.00;99.90;;;;;;4966745;28;20034;-86
2023/05/04 01:39:25;;;;;;;46.20;35.23;;;7.00;99.90;;;;;;4966434;28;20534;-86
2023/05/04 01:41:50;;;;;;;45.27;34.50;;;7.00;99.90;;;;;;4966033;28;20540;-87
2023/05/04 01:44:16;;;;;;;46.30;35.47;;;6.90;99.90;;;;;;4966603;28;20023;-87
2023/05/04 01:46:42;;;;;;;49.77;35.90;;;6.90;99.90;;;;;;4967960;28;20049;-87
2023/05/04 01:49:07;;;;;;;53.00;38.40;;;6.90;99.90;;;;;;4966095;28;20057;-86
2023/05/04 01:51:33;;;;;;;62.73;39.10;;;6.90;99.90;;;;;;4965147;28;21407;-86
2023/05/04 01:53:58;;;;;;;54.87;39.33;;;6.90;99.90;;;;;;4965370;28;20034;-87
2023/05/04 01:56:26;;;;;;;51.73;37.47;;;6.80;99.90;;;;;;4965789;28;20117;-86
2023/05/04 01:58:52;;;;;;;51.00;36.60;;;6.80;99.90;;;;;;4966040;28;20122;-87
2023/05/04 02:01:17;;;;;;;48.30;36.33;;;6.80;99.90;;;;;;4965924;28;21620;-87
2023/05/04 02:03:43;;;;;;;50.70;37.17;;;6.70;99.90;;;;;;4966621;28;20054;-86
2023/05/04 02:06:09;;;;;;;48.97;37.10;;;6.70;99.90;;;;;;4966336;28;20047;-86
2023/05/04 02:08:34;;;;;;;53.37;38.50;;;6.70;99.90;;;;;;4966567;28;20046;-87
2023/05/04 02:11:00;;;;;;;49.70;37.77;;;6.70;99.90;;;;;;4964872;28;20130;-86
2023/05/04 02:13:25;;;;;;;51.10;36.80;;;6.70;99.90;;;;;;4966631;28;20023;-86
2023/05/04 02:15:51;;;;;;;50.73;38.17;;;6.70;99.90;;;;;;4966750;28;20053;-86
2023/05/04 02:18:16;;;;;;;48.70;36.23;;;6.60;99.90;;;;;;4965273;28;20026;-86
2023/05/04 02:20:42;;;;;;;48.50;35.03;;;6.60;99.90;;;;;;4963018;28;20045;-86
2023/05/04 02:23:07;;;;;;;52.03;37.50;;;6.60;99.90;;;;;;4965170;28;20037;-86
2023/05/04 02:25:33;;;;;;;62.47;39.73;;;6.60;99.90;;;;;;4965534;28;20118;-86
2023/05/04 02:27:59;;;;;;;52.80;38.67;;;6.50;99.90;;;;;;4965150;28;20782;-86
2023/05/04 02:30:25;;;;;;;53.20;38.93;;;6.60;99.90;;;;;;4963833;28;20030;-86
2023/05/04 02:32:50;;;;;;;54.13;37.13;;;6.50;99.90;;;;;;4967933;28;20033;-87
2023/05/04 02:35:16;;;;;;;51.90;38.13;;;6.50;99.90;;;;;;4966798;28;21035;-86
2023/05/04 02:37:41;;;;;;;51.67;37.63;;;6.50;99.90;;;;;;4964331;28;20139;-87
2023/05/04 02:40:07;;;;;;;52.20;37.80;;;6.50;99.90;;;;;;4964704;28;20810;-87
2023/05/04 02:42:33;;;;;;;54.73;39.17;;;6.40;99.90;;;;;;4963978;28;20078;-86
2023/05/04 02:44:59;;;;;;;49.40;37.40;;;6.40;99.90;;;;;;4965275;28;20124;-86
2023/05/04 02:47:24;;;;;;;53.90;38.03;;;6.40;99.90;;;;;;4965213;28;20038;-86
2023/05/04 02:49:50;;;;;;;49.03;35.80;;;6.40;99.90;;;;;;4965151;28;20118;-86
2023/05/04 02:52:16;;;;;;;52.37;38.07;;;6.30;99.90;;;;;;4966172;28;20117;-87
2023/05/04 02:54:41;;;;;;;50.93;36.77;;;6.30;99.90;;;;;;4965093;28;20113;-87
2023/05/04 02:57:07;;;;;;;51.73;37.03;;;6.30;99.90;;;;;;4964918;28;20058;-87
2023/05/04 02:59:32;;;;;;;51.10;36.83;;;6.30;99.90;;;;;;4964539;28;20063;-87
2023/05/04 03:01:58;;;;;;;52.33;38.00;;;6.20;99.90;;;;;;4964533;28;20031;-87
2023/05/04 03:04:24;;;;;;;51.63;36.60;;;6.20;99.90;;;;;;4965439;28;20122;-87
2023/05/04 03:06:49;;;;;;;54.97;38.13;;;6.20;99.90;;;;;;4964454;28;20822;-87
2023/05/04 03:09:15;;;;;;;51.17;37.33;;;6.20;99.90;;;;;;4965368;28;20023;-86
2023/05/04 03:11:40;;;;;;;46.60;36.23;;;6.10;99.90;;;;;;4966521;28;20922;-86
2023/05/04 03:14:06;;;;;;;52.03;37.23;;;6.10;99.90;;;;;;4965268;28;20033;-86
2023/05/04 03:16:32;;;;;;;50.20;36.70;;;6.10;99.90;;;;;;4965706;28;20058;-87
2023/05/04 03:18:58;;;;;;;64.30;42.57;;;6.10;99.90;;;;;;4964606;28;20487;-86
2023/05/04 03:21:23;;;;;;;57.00;39.77;;;6.10;99.90;;;;;;4964457;28;20043;-86
2023/05/04 03:23:49;;;;;;;53.00;38.17;;;6.10;99.90;;;;;;4966377;28;20118;-86
2023/05/04 03:26:14;;;;;;;54.80;39.23;;;6.10;99.90;;;;;;4964929;28;20048;-86
2023/05/04 03:28:40;;;;;;;53.70;38.50;;;6.10;99.90;;;;;;4966126;28;20035;-86
2023/05/04 03:31:08;;;;;;;56.23;38.57;;;6.10;99.90;;;;;;4966087;28;20120;-86
2023/05/04 03:33:33;;;;;;;56.80;37.70;;;6.00;99.90;;;;;;4969662;28;20031;-86
2023/05/04 03:35:59;;;;;;;51.97;38.80;;;6.00;99.90;;;;;;4970809;28;20023;-86
2023/05/04 03:38:27;;;;;;;50.83;37.07;;;6.00;99.90;;;;;;4973429;28;20042;-86
2023/05/04 03:40:53;;;;;;;55.70;38.23;;;6.00;99.90;;;;;;4974381;28;20046;-87
2023/05/04 03:43:18;;;;;;;53.13;37.70;;;6.00;99.90;;;;;;4972812;28;20035;-86
2023/05/04 03:45:45;;;;;;;53.37;36.97;;;6.00;99.90;;;;;;4955979;28;20031;-86
2023/05/04 03:48:10;;;;;;;54.10;37.93;;;5.90;99.90;;;;;;4972689;28;20049;-86
2023/05/04 03:50:36;;;;;;;55.10;40.07;;;5.90;99.90;;;;;;4971098;28;20832;-86
2023/05/04 03:53:01;;;;;;;52.27;37.80;;;6.00;99.90;;;;;;4969783;28;20109;-86
2023/05/04 03:55:27;;;;;;;52.77;38.57;;;5.90;99.90;;;;;;4969798;28;20038;-86
2023/05/04 03:57:53;;;;;;;54.50;38.53;;;5.90;99.90;;;;;;4969650;28;20040;-86
2023/05/04 04:00:18;;;;;;;59.93;41.10;;;5.90;99.90;;;;;;4969132;28;20483;-86
2023/05/04 04:02:44;;;;;;;58.40;40.87;;;5.90;99.90;;;;;;4969936;28;20035;-87
2023/05/04 04:05:09;;;;;;;58.63;39.87;;;5.90;99.90;;;;;;4970389;28;20074;-87
2023/05/04 04:07:35;;;;;;;66.53;45.37;;;5.90;99.90;;;;;;4970491;28;20081;-87
2023/05/04 04:10:01;;;;;;;55.33;39.00;;;5.90;99.90;;;;;;4969581;28;20038;-86
2023/05/04 04:12:28;;;;;;;58.10;39.73;;;5.90;99.90;;;;;;4969997;28;20605;-87
2023/05/04 04:14:54;;;;;;;54.07;39.20;;;5.90;99.90;;;;;;4967798;28;20031;-86
2023/05/04 04:17:19;;;;;;;51.90;37.80;;;6.00;99.90;;;;;;4967966;28;20026;-86
2023/05/04 04:19:45;;;;;;;56.03;38.47;;;6.00;99.90;;;;;;4966716;28;20054;-87
2023/05/04 04:22:11;;;;;;;51.77;37.43;;;6.00;99.90;;;;;;4968615;28;20528;-87
2023/05/04 04:24:36;;;;;;;53.73;37.93;;;6.00;99.90;;;;;;4968579;28;20035;-87
2023/05/04 04:27:02;;;;;;;55.10;38.73;;;6.00;99.90;;;;;;4969568;28;20137;-86
2023/05/04 04:29:27;;;;;;;50.40;36.63;;;6.00;99.90;;;;;;4968289;28;20035;-87
2023/05/04 04:31:53;;;;;;;50.97;37.00;;;6.00;99.90;;;;;;4969195;28;20429;-86
2023/05/04 04:34:19;;;;;;;48.97;36.77;;;6.00;99.90;;;;;;4969002;28;20038;-87
2023/05/04 04:36:45;;;;;;;50.93;35.50;;;6.00;99.90;;;;;;4965801;28;20031;-86
2023/05/04 04:39:10;;;;;;;47.13;35.00;;;6.10;99.90;;;;;;4967249;28;20736;-87
2023/05/04 04:41:36;;;;;;;48.57;34.80;;;6.10;99.90;;;;;;4969763;28;20069;-87
2023/05/04 04:44:02;;;;;;;51.50;35.57;;;6.20;99.90;;;;;;4968441;28;20027;-86
2023/05/04 04:46:28;;;;;;;51.33;35.43;;;6.20;99.90;;;;;;4969157;28;20039;-87
2023/05/04 04:48:54;;;;;;;47.60;35.40;;;6.30;99.90;;;;;;4967573;28;20027;-87
2023/05/04 04:51:20;;;;;;;52.87;35.70;;;6.30;99.90;;;;;;4966901;28;20061;-87
2023/05/04 04:53:45;;;;;;;46.97;34.47;;;6.40;99.90;;;;;;4966296;28;20047;-87
2023/05/04 04:56:11;;;;;;;47.60;34.23;;;6.50;99.90;;;;;;4967551;28;20033;-87
2023/05/04 04:58:37;;;;;;;44.97;32.00;;;6.60;99.90;;;;;;4971101;28;20118;-86
2023/05/04 05:01:04;;;;;;;42.77;31.53;;;6.60;99.90;;;;;;4967488;28;20031;-87
2023/05/04 05:03:30;;;;;;;44.50;30.73;;;6.70;99.90;;;;;;4969511;28;20026;-86
2023/05/04 05:05:55;;;;;;;41.93;32.53;;;6.80;99.90;;;;;;4967944;28;20463;-87
2023/05/04 05:08:21;;;;;;;47.67;31.97;;;6.80;99.90;;;;;;4969118;28;20038;-87
2023/05/04 05:10:47;;;;;;;44.07;32.10;;;6.90;99.90;;;;;;4951321;28;20042;-85
2023/05/04 05:13:13;;;;;;;43.93;32.20;;;7.00;99.90;;;;;;4972662;28;21534;-84
2023/05/04 05:15:38;;;;;;;42.67;32.47;;;7.00;99.90;;;;;;4973868;28;20031;-84
2023/05/04 05:18:04;;;;;;;39.97;30.70;;;7.10;99.90;;;;;;4972540;28;20050;-85
2023/05/04 05:20:29;;;;;;;38.90;29.00;;;7.20;99.90;;;;;;4970567;28;20046;-85
2023/05/04 05:22:55;;;;;;;37.97;29.03;;;7.30;99.90;;;;;;4968290;28;20035;-85
2023/05/04 05:25:21;;;;;;;35.53;28.80;;;7.40;99.90;;;;;;4967475;28;20035;-85
2023/05/04 05:27:47;;;;;;;36.93;28.13;;;7.50;99.90;;;;;;4969882;28;20070;-84
2023/05/04 05:30:12;;;;;;;37.63;27.73;;;7.70;99.90;;;;;;4970494;28;20069;-85
2023/05/04 05:32:38;;;;;;;34.40;25.80;;;7.80;99.90;;;;;;4972071;28;20094;-85
2023/05/04 05:35:04;;;;;;;33.37;24.87;;;7.90;99.90;;;;;;4971635;28;20085;-85
2023/05/04 05:37:31;;;;;;;33.27;24.57;;;8.00;99.90;;;;;;4970666;28;20029;-85
2023/05/04 05:39:58;;;;;;;32.03;23.77;;;8.10;99.90;;;;;;4969800;28;20034;-84
2023/05/04 05:42:24;;;;;;;32.77;25.63;;;8.20;99.90;;;;;;4970710;28;20022;-85
2023/05/04 05:44:50;;;;;;;28.23;21.63;;;8.40;99.90;;;;;;4970264;28;20114;-85
2023/05/04 05:47:15;;;;;;;27.03;19.23;;;8.50;99.90;;;;;;4967766;28;20042;-86
2023/05/04 05:49:41;;;;;;;25.60;17.73;;;8.60;99.90;;;;;;4967970;28;20041;-85
2023/05/04 05:52:07;;;;;;;23.97;17.07;;;8.80;99.90;;;;;;4969728;28;20038;-84
2023/05/04 05:54:34;;;;;;;23.13;17.10;;;8.90;99.90;;;;;;4970466;28;20054;-84
2023/05/04 05:57:00;;;;;;;22.77;16.20;;;9.00;99.90;;;;;;4970479;28;20038;-85
2023/05/04 05:59:26;;;;;;;20.23;14.97;;;9.10;99.90;;;;;;4968222;28;20035;-84
2023/05/04 06:01:51;;;;;;;16.73;14.60;;;9.30;99.90;;;;;;4968121;28;20047;-85
2023/05/04 06:04:17;;;;;;;22.00;15.07;;;9.40;99.90;;;;;;4966671;28;20023;-85
2023/05/04 06:06:42;;;;;;;19.87;15.63;;;9.50;99.90;;;;;;4966933;28;20088;-85
2023/05/04 06:09:08;;;;;;;18.97;14.77;;;9.60;99.90;;;;;;4967409;28;20031;-85
2023/05/04 06:11:34;;;;;;;21.07;14.63;;;9.80;99.90;;;;;;4967415;28;20027;-85
2023/05/04 06:14:00;;;;;;;17.83;13.67;;;9.90;99.90;;;;;;4967297;28;20038;-85
2023/05/04 06:16:25;;;;;;;18.97;14.00;;;10.00;99.90;;;;;;4967999;28;20815;-85
2023/05/04 06:18:51;;;;;;;19.73;13.13;;;10.20;99.90;;;;;;4966348;28;21451;-85
2023/05/04 06:21:16;;;;;;;17.30;14.17;;;10.30;99.90;;;;;;4968151;28;20046;-85
2023/05/04 06:23:42;;;;;;;16.23;13.83;;;10.40;99.90;;;;;;4968391;28;20058;-85
2023/05/04 06:26:08;;;;;;;17.47;13.80;;;10.50;99.90;;;;;;4968460;28;20034;-85
2023/05/04 06:28:34;;;;;;;18.77;14.57;;;10.60;99.90;;;;;;4968569;28;20034;-84
2023/05/04 06:31:01;;;;;;;16.63;13.37;;;10.70;99.90;;;;;;4966322;28;20165;-85
2023/05/04 06:33:26;;;;;;;18.27;14.47;;;10.70;99.90;;;;;;4965580;28;20138;-86
2023/05/04 06:35:52;;;;;;;16.93;13.63;;;10.80;99.90;;;;;;4964568;28;20129;-85
2023/05/04 06:38:18;;;;;;;18.97;13.77;;;10.90;99.90;;;;;;4965929;28;20114;-85
2023/05/04 06:40:43;;;;;;;19.30;14.07;;;10.90;99.90;;;;;;4963005;28;20042;-86
2023/05/04 06:43:09;;;;;;;19.27;13.73;;;11.00;99.90;;;;;;4962382;28;20022;-85
2023/05/04 06:45:35;;;;;;;19.73;13.17;;;11.00;99.90;;;;;;4962036;28;20404;-86
2023/05/04 06:48:04;;;;;;;15.30;12.50;;;11.10;99.90;;;;;;4960438;28;20031;-86
2023/05/04 06:50:30;;;;;;;13.97;11.57;;;11.20;99.90;;;;;;4960327;28;20034;-86
2023/05/04 06:53:10;;;;;;;13.43;12.03;;;11.40;99.90;;;;;;4963472;28;20054;-86
2023/05/04 06:55:36;;;;;;;15.60;12.73;;;11.50;99.90;;;;;;4964320;28;20022;-85
2023/05/04 06:58:03;;;;;;;15.23;11.23;;;11.60;99.90;;;;;;4964785;28;20027;-84
2023/05/04 07:00:30;;;;;;;15.68;12.90;;;11.70;99.90;;;;;;4969225;28;20452;-84
2023/05/04 07:02:55;;;;;;;15.52;11.82;;;11.70;99.90;;;;;;4965941;28;20094;-83
2023/05/04 07:05:22;;;;;;;18.15;10.98;;;11.70;99.90;;;;;;4967846;28;20102;-83
2023/05/04 07:07:48;;;;;;;15.75;11.93;;;11.70;99.90;;;;;;4972200;28;20034;-84
2023/05/04 07:10:14;;;;;;;14.30;11.98;;;11.80;99.90;;;;;;4971431;28;20084;-84
2023/05/04 07:12:40;;;;;;;16.05;12.10;;;11.90;99.90;;;;;;4972450;28;20039;-85
2023/05/04 07:15:07;;;;;;;17.40;12.88;;;12.00;99.90;;;;;;4974515;28;20050;-83
2023/05/04 07:17:33;;;;;;;15.27;12.75;;;12.00;99.90;;;;;;4965923;28;20041;-84
2023/05/04 07:20:01;;;;;;;15.57;12.40;;;12.00;99.90;;;;;;4969835;28;20031;-84
2023/05/04 07:22:27;;;;;;;17.75;12.80;;;12.10;99.90;;;;;;4971579;28;20057;-84
2023/05/04 07:24:52;;;;;;;14.77;11.68;;;12.20;99.90;;;;;;4971167;28;20027;-84
2023/05/04 07:27:18;;;;;;;13.18;11.10;;;12.30;99.90;;;;;;4971712;28;20027;-84
2023/05/04 07:29:44;;;;;;;14.32;11.50;;;12.40;99.90;;;;;;4970546;28;20099;-84
2023/05/04 07:32:09;;;;;;;12.43;10.73;;;12.50;99.90;;;;;;4971468;28;20121;-84
2023/05/04 07:34:35;;;;;;;12.95;9.80;;;12.50;99.90;;;;;;4967270;28;20157;-83
2023/05/04 07:37:04;;;;;;;15.32;10.02;;;12.60;99.90;;;;;;4966974;28;20109;-84
2023/05/04 07:39:30;;;;;;;12.25;9.32;;;12.70;99.90;;;;;;4967138;28;20925;-84
2023/05/04 07:41:55;;;;;;;12.10;8.68;;;12.80;99.90;;;;;;4969053;28;20043;-84
2023/05/04 07:44:21;;;;;;;17.48;9.65;;;12.90;99.90;;;;;;4971174;28;20030;-83
2023/05/04 07:46:46;;;;;;;11.43;8.52;;;12.90;99.90;;;;;;4972147;28;20566;-85
2023/05/04 07:49:12;;;;;;;9.27;7.85;;;13.00;99.90;;;;;;4969830;28;20046;-84
2023/05/04 07:51:38;;;;;;;10.85;8.40;;;13.00;99.90;;;;;;4966999;28;20039;-84
2023/05/04 07:54:03;;;;;;;12.35;9.15;;;13.10;99.90;;;;;;4967321;28;20054;-84
2023/05/04 07:56:29;;;;;;;11.43;9.82;;;13.30;99.90;;;;;;4969278;28;20476;-84
2023/05/04 07:58:54;;;;;;;10.05;8.20;;;13.40;99.90;;;;;;4967915;28;20030;-84
2023/05/04 08:01:20;;;;;;;11.02;8.30;;;13.50;99.90;;;;;;4968231;28;20466;-84
2023/05/04 08:03:46;;;;;;;10.18;8.25;;;13.60;99.90;;;;;;4966622;28;20518;-84
2023/05/04 08:06:12;;;;;;;13.15;7.88;;;13.60;99.90;;;;;;4949538;28;20041;-84
2023/05/04 08:08:37;;;;;;;8.65;7.78;;;13.60;99.90;;;;;;4967290;28;20128;-84
2023/05/04 08:11:03;;;;;;;9.88;7.38;;;13.70;99.90;;;;;;4969750;28;20027;-84
2023/05/04 08:13:28;;;;;;;9.65;6.60;;;13.80;99.90;;;;;;4969224;28;20062;-75
2023/05/04 08:15:56;;;;;;;10.13;6.97;;;13.80;99.90;;;;;;4965464;28;20034;-75
2023/05/04 08:18:22;;;;;;;10.10;6.55;;;13.80;99.90;;;;;;4961036;28;20049;-76
2023/05/04 08:20:47;;;;;;;7.75;6.40;;;14.00;99.90;;;;;;4957631;28;20042;-76
2023/05/04 08:23:13;;;;;;;7.82;6.30;;;14.00;99.90;;;;;;4959360;28;20039;-76
2023/05/04 08:25:38;;;;;;;7.25;6.13;;;14.10;99.90;;;;;;4960021;28;20042;-76
2023/05/04 08:28:05;;;;;;;9.25;6.57;;;14.30;99.90;;;;;;4960166;28;20061;-76
2023/05/04 08:30:30;;;;;;;9.75;5.90;;;14.30;99.90;;;;;;4958869;28;20058;-76
2023/05/04 08:32:56;;;;;;;8.60;5.80;;;14.40;99.90;;;;;;4960709;28;20031;-76
2023/05/04 08:35:24;;;;;;;8.00;5.30;;;14.40;99.90;;;;;;4959299;28;20053;-76
2023/05/04 08:37:50;;;;;;;6.35;5.20;;;14.50;99.90;;;;;;4959902;28;20534;-76
2023/05/04 08:40:16;;;;;;;7.63;4.90;;;14.60;99.90;;;;;;4959561;28;20037;-76
2023/05/04 08:42:46;;;;;;;6.20;4.93;;;14.60;99.90;;;;;;4958631;28;20112;-76
2023/05/04 08:45:13;;;;;;;6.70;4.85;;;14.80;99.90;;;;;;4959768;28;21415;-76
2023/05/04 08:47:42;;;;;;;5.55;4.50;;;14.90;99.90;;;;;;4959899;28;20034;-76
2023/05/04 08:50:10;;;;;;;8.70;5.00;;;15.00;99.90;;;;;;4959061;28;20095;-76
2023/05/04 08:52:37;;;;;;;9.20;4.90;;;15.00;99.90;;;;;;4958004;28;20026;-77
2023/05/04 08:55:05;;;;;;;6.05;4.35;;;15.10;99.90;;;;;;4958999;28;20100;-77
2023/05/04 08:57:32;;;;;;;5.70;4.35;;;15.30;99.90;;;;;;4960200;28;20031;-76
2023/05/04 09:00:00;;;;;;;4.63;4.15;;;15.50;99.90;;;;;;4958963;28;20030;-76
2023/05/04 09:02:26;;;;;;;6.03;4.80;;;15.50;99.90;;;;;;4958329;28;20046;-76
2023/05/04 09:04:52;;;;;;;6.88;5.38;;;15.60;99.90;;;;;;4959806;28;20037;-76
2023/05/04 09:07:19;;;;;;;7.50;6.13;;;15.70;99.90;;;;;;4959680;28;20538;-76
2023/05/04 09:09:50;;;;;;;11.23;6.30;;;15.80;99.90;;;;;;4940736;28;20022;-76
2023/05/04 09:12:17;;;;;;;7.82;6.63;;;15.90;99.90;;;;;;4958927;28;20041;-76
2023/05/04 09:14:43;;;;;;;10.02;6.00;;;16.00;99.90;;;;;;4959178;28;20109;-76
2023/05/04 09:17:24;;;;;;;11.77;6.40;;;16.10;99.90;;;;;;4958962;28;20065;-75
2023/05/04 09:20:00;;;;;;;7.43;5.45;;;16.20;99.90;;;;;;4957477;28;20067;-76
2023/05/04 09:22:26;;;;;;;8.02;5.80;;;16.40;99.90;;;;;;4958249;28;20183;-77
2023/05/04 09:24:52;;;;;;;9.70;5.57;;;16.60;99.90;;;;;;4961085;28;20027;-76
2023/05/04 09:27:18;;;;;;;8.45;4.80;;;16.80;99.90;;;;;;4959068;28;20058;-77
2023/05/04 09:29:52;;;;;;;7.13;5.25;;;16.90;99.90;;;;;;4957830;28;20031;-77
2023/05/04 09:32:18;;;;;;;10.60;5.38;;;17.10;99.90;;;;;;4960671;28;20085;-77
2023/05/04 09:34:51;;;;;;;11.57;4.95;;;17.20;99.90;;;;;;4961262;28;20113;-77
2023/05/04 09:37:19;;;;;;;5.28;4.43;;;17.40;99.90;;;;;;4941959;28;20853;-77
2023/05/04 09:39:49;;;;;;;8.07;5.25;;;17.60;99.90;;;;;;4941484;28;20038;-77
2023/05/04 09:42:17;;;;;;;6.57;4.90;;;17.70;99.90;;;;;;4971066;28;20411;-79
2023/05/04 09:44:43;;;;;;;9.60;5.88;;;17.90;99.90;;;;;;4963652;28;20042;-79
2023/05/04 09:47:09;;;;;;;5.97;4.97;;;18.10;99.90;;;;;;4967879;28;20030;-75
2023/05/04 09:49:36;;;;;;;8.88;5.35;;;18.10;99.90;;;;;;4958748;28;20045;-76
2023/05/04 09:52:03;;;;;;;8.18;4.30;;;18.20;99.90;;;;;;4961263;28;20050;-76
2023/05/04 09:54:40;;;;;;;8.55;4.43;;;18.40;99.90;;;;;;4960732;28;20045;-76
2023/05/04 09:57:13;;;;;;;7.75;4.85;;;18.60;99.90;;;;;;4961900;28;20038;-76
2023/05/04 09:59:39;;;;;;;13.50;5.25;;;18.70;99.90;;;;;;4960396;28;20030;-76
2023/05/04 10:02:06;;;;;;;7.50;4.72;;;18.80;99.90;;;;;;4960130;28;21039;-76
2023/05/04 10:04:33;;;;;;;9.88;5.80;;;18.80;99.90;;;;;;4960360;28;20042;-76
2023/05/04 10:07:02;;;;;;;14.77;5.50;;;18.90;99.90;;;;;;4962579;28;20034;-76
2023/05/04 10:09:29;;;;;;;11.20;4.95;;;18.90;99.90;;;;;;4960969;28;20031;-76
2023/05/04 10:11:59;;;;;;;10.80;4.78;;;19.00;99.90;;;;;;4959341;28;20033;-76
2023/05/04 10:14:26;;;;;;;7.97;5.28;;;19.10;99.90;;;;;;4959822;28;20568;-76
2023/05/04 10:17:06;;;;;;;7.47;5.65;;;19.20;99.90;;;;;;4964438;28;20464;-79
2023/05/04 10:19:53;;;;;;;6.55;5.03;;;19.30;99.90;;;;;;4964607;28;20038;-76
2023/05/04 10:22:51;;;;;;;6.63;5.10;;;19.40;99.90;;;;;;4962436;28;20066;-83
2023/05/04 10:25:29;;;;;;;6.93;5.10;;;19.50;99.90;;;;;;4963487;28;20962;-83
2023/05/04 10:28:28;;;;;;;5.63;4.78;;;19.50;99.90;;;;;;4962503;28;20038;-83
2023/05/04 10:30:57;;;;;;;8.65;5.53;;;19.50;99.90;;;;;;4962327;28;20031;-83
2023/05/04 10:33:25;;;;;;;7.53;4.75;;;19.50;99.90;;;;;;4962507;28;20053;-82
2023/05/04 10:35:52;;;;;;;7.10;4.97;;;19.50;99.90;;;;;;4961835;28;20594;-83
2023/05/04 10:38:18;;;;;;;8.13;5.40;;;19.70;99.90;;;;;;4967251;28;20042;-83
2023/05/04 10:40:47;;;;;;;7.93;4.82;;;20.00;99.90;;;;;;4967198;28;20129;-83
2023/05/04 10:43:22;;;;;;;10.52;5.63;;;20.00;99.90;;;;;;4968006;28;20037;-83
2023/05/04 10:45:48;;;;;;;;;;;20.00;99.90;;;;;;4970561;28;20050;-83
2023/05/04 10:48:13;;;;;;;6.90;5.07;;;20.10;99.90;;;;;;4969699;28;20035;-82
2023/05/04 10:50:49;;;;;;;6.63;4.18;;;20.30;99.90;;;;;;4967994;28;20095;-82
2023/05/04 10:53:17;;;;;;;8.40;5.47;;;20.40;99.90;;;;;;4967019;28;20168;-82
2023/05/04 10:55:47;;;;;;;8.23;5.43;;;20.40;99.90;;;;;;4968380;28;20034;-83
2023/05/04 10:58:15;;;;;;;8.95;4.78;;;20.50;99.90;;;;;;4968721;28;20042;-82
2023/05/04 11:00:43;;;;;;;9.00;4.80;;;20.30;99.90;;;;;;4968035;28;20049;-82
2023/05/04 11:03:10;;;;;;;6.93;5.40;;;20.50;99.90;;;;;;4970282;28;20031;-83
2023/05/04 11:05:53;;;;;;;7.28;5.25;;;20.60;99.90;;;;;;4968887;28;20034;-82
2023/05/04 11:08:21;;;;;;;6.25;5.30;;;20.60;99.90;;;;;;4968869;28;20031;-83
2023/05/04 11:10:48;;;;;;;7.85;5.47;;;20.80;99.90;;;;;;4967567;28;20752;-83
2023/05/04 11:13:16;;;;;;;7.25;5.38;;;21.00;99.90;;;;;;4968816;28;20046;-83
2023/05/04 11:15:50;;;;;;;11.48;6.13;;;21.00;99.90;;;;;;4969530;28;20035;-83
2023/05/04 11:18:33;;;;;;;5.97;4.95;;;21.00;99.90;;;;;;4970148;28;20039;-83
2023/05/04 11:20:59;;;;;;;7.18;5.20;;;21.10;99.90;;;;;;4968569;28;20050;-82
2023/05/04 11:23:25;;;;;;;10.07;5.90;;;21.30;99.90;;;;;;4969128;28;20027;-83
2023/05/04 11:25:51;;;;;;;5.97;4.97;;;21.30;99.90;;;;;;4970336;28;20031;-83
2023/05/04 11:28:17;;;;;;;6.22;5.43;;;21.30;99.90;;;;;;4967091;28;21570;-84
2023/05/04 11:30:44;;;;;;;7.45;5.20;;;21.20;99.90;;;;;;4965369;28;20034;-83
2023/05/04 11:33:12;;;;;;;8.77;5.00;;;21.10;99.90;;;;;;4967255;28;20031;-83
2023/05/04 11:35:42;;;;;;;7.07;4.90;;;21.10;99.90;;;;;;4967456;28;20035;-83
2023/05/04 11:38:08;;;;;;;6.05;4.90;;;21.50;99.90;;;;;;4968196;28;21483;-82
2023/05/04 11:40:35;;;;;;;9.73;5.10;;;21.70;99.90;;;;;;4967121;28;20169;-83
2023/05/04 11:43:01;;;;;;;10.20;5.40;;;21.90;99.90;;;;;;4968374;28;20030;-82
2023/05/04 11:45:32;;;;;;;8.75;5.40;;;21.70;99.90;;;;;;4969116;28;20125;-83
2023/05/04 11:47:59;;;;;;;12.50;5.30;;;21.80;99.90;;;;;;4969287;28;20018;-83
2023/05/04 11:50:26;;;;;;;7.13;5.75;;;21.80;99.90;;;;;;4966541;28;20034;-82
2023/05/04 11:53:06;;;;;;;8.88;5.97;;;21.90;99.90;;;;;;4971404;28;20030;-83
2023/05/04 11:55:31;;;;;;;8.35;5.20;;;22.00;99.90;;;;;;4969516;28;20045;-83
2023/05/04 11:58:05;;;;;;;7.97;4.82;;;22.10;99.90;;;;;;4970557;28;20019;-83
2023/05/04 12:00:44;;;;;;;14.97;5.97;;;22.10;99.90;;;;;;4965842;28;20093;-83
2023/05/04 12:03:15;;;;;;;10.57;5.72;;;22.10;99.90;;;;;;4969018;28;20045;-83
2023/05/04 12:05:52;;;;;;;11.68;5.45;;;22.40;99.90;;;;;;4973910;28;20023;-83
2023/05/04 12:08:29;;;;;;;9.15;5.25;;;22.20;99.90;;;;;;4973810;28;20062;-82
2023/05/04 12:11:20;;;;;;;11.43;5.72;;;22.40;99.90;;;;;;4971623;28;20125;-83
2023/05/04 12:13:47;;;;;;;8.43;4.95;;;22.60;99.90;;;;;;4973341;28;20031;-82
2023/05/04 12:16:15;;;;;;;10.35;6.32;;;22.50;99.90;;;;;;4973906;28;20106;-83
2023/05/04 12:18:41;;;;;;;11.60;6.57;;;22.50;99.90;;;;;;4966616;28;20035;-80
2023/05/04 12:21:17;;;;;;;8.63;5.65;;;22.60;99.90;;;;;;4978660;28;20049;-80
2023/05/04 12:23:43;;;;;;;7.30;5.93;;;22.60;99.90;;;;;;4979994;28;20488;-82
2023/05/04 12:26:10;;;;;;;12.35;6.50;;;22.70;99.90;;;;;;4977044;28;20058;-81
2023/05/04 12:28:36;;;;;;;7.68;5.65;;;22.80;99.90;;;;;;4977371;28;20035;-80
2023/05/04 12:31:06;;;;;;;10.85;6.28;;;22.90;99.90;;;;;;4977903;28;20043;-80
2023/05/04 12:33:32;;;;;;;9.05;6.57;;;23.10;99.90;;;;;;4961222;28;20490;-79
2023/05/04 12:36:00;;;;;;;8.70;5.82;;;23.10;99.00;;;;;;4981532;28;20206;-80
2023/05/04 12:38:28;;;;;;;9.05;6.35;;;22.90;99.90;;;;;;4972411;28;20047;-78